Time;durP1;ratioP1;P1;durP2;ratioP2;P2;SDS_P1;SDS_P2;PMS_P1;PMS_P2;Temp;Humidity;BMP_temperature;BMP_pressure;BME280_temperature;BME280_humidity;BME280_pressure;Samples;Min_cycle;Max_cycle;Signal;HPM_P1;HPM_P2
2023/07/13 00:00:23;;;;;;;5.20;1.10;;;20.80;1.00;;;;;;5070537;28;20387;-68
2023/07/13 00:02:49;;;;;;;5.43;1.20;;;20.70;1.00;;;;;;5069956;28;20424;-68
2023/07/13 00:05:14;;;;;;;8.60;1.40;;;20.70;1.00;;;;;;5071039;28;20880;-68
2023/07/13 00:07:40;;;;;;;6.07;1.30;;;20.70;1.00;;;;;;5070567;28;20388;-68
2023/07/13 00:10:06;;;;;;;7.50;1.63;;;20.60;1.00;;;;;;5069943;28;20490;-68
2023/07/13 00:12:37;;;;;;;6.72;1.40;;;20.50;1.00;;;;;;5070693;28;20380;-68
2023/07/13 00:15:07;;;;;;;6.90;1.40;;;20.40;1.00;;;;;;5074139;28;20427;-68
2023/07/13 00:17:33;;;;;;;5.63;1.10;;;20.40;1.00;;;;;;5074822;28;20495;-68
2023/07/13 00:19:58;;;;;;;6.10;1.20;;;20.30;1.00;;;;;;5070520;28;20490;-66
2023/07/13 00:22:28;;;;;;;5.80;1.20;;;20.20;1.00;;;;;;5069943;28;20438;-67
2023/07/13 00:24:55;;;;;;;5.30;1.27;;;20.20;1.00;;;;;;5070446;28;20436;-67
2023/07/13 00:27:21;;;;;;;5.97;1.05;;;20.10;1.00;;;;;;5052755;28;20402;-67
2023/07/13 00:29:47;;;;;;;6.53;1.40;;;20.10;1.00;;;;;;5070719;28;20858;-67
2023/07/13 00:32:12;;;;;;;6.10;1.20;;;20.00;1.00;;;;;;5071501;28;20392;-67
2023/07/13 00:34:38;;;;;;;5.97;1.30;;;19.90;1.00;;;;;;5070629;28;20399;-67
2023/07/13 00:37:08;;;;;;;6.28;1.50;;;19.90;1.00;;;;;;5069727;28;20426;-67
2023/07/13 00:39:34;;;;;;;8.50;1.30;;;19.90;1.00;;;;;;5070393;28;20397;-67
2023/07/13 00:42:01;;;;;;;5.20;1.08;;;19.90;1.00;;;;;;5068813;28;20388;-67
2023/07/13 00:44:26;;;;;;;6.15;1.23;;;19.90;1.00;;;;;;5070492;28;20379;-67
2023/07/13 00:46:52;;;;;;;7.60;1.30;;;19.90;1.00;;;;;;5071988;28;20399;-67
2023/07/13 00:49:25;;;;;;;8.73;1.40;;;19.90;1.00;;;;;;5075501;28;20380;-68
2023/07/13 00:51:55;;;;;;;5.10;1.10;;;19.80;1.00;;;;;;5052042;28;20491;-67
2023/07/13 00:54:28;;;;;;;5.63;1.40;;;19.80;1.00;;;;;;5069252;28;20380;-68
2023/07/13 00:56:57;;;;;;;5.30;1.20;;;19.70;1.00;;;;;;5064340;28;20827;-68
2023/07/13 00:59:23;;;;;;;6.03;1.20;;;19.70;1.00;;;;;;5069238;28;20452;-68
2023/07/13 01:01:49;;;;;;;6.30;1.10;;;19.60;1.00;;;;;;5066788;28;20392;-68
2023/07/13 01:04:16;;;;;;;6.30;1.13;;;19.70;1.00;;;;;;5068777;28;20395;-67
2023/07/13 01:06:43;;;;;;;5.65;1.10;;;19.70;1.00;;;;;;5069616;28;20891;-67
2023/07/13 01:09:10;;;;;;;6.20;1.00;;;19.60;1.00;;;;;;5068364;28;20398;-67
2023/07/13 01:11:36;;;;;;;6.35;1.40;;;19.60;1.00;;;;;;5068892;28;20403;-67
2023/07/13 01:14:03;;;;;;;6.32;1.30;;;19.60;1.00;;;;;;5068654;28;20482;-67
2023/07/13 01:16:33;;;;;;;5.50;1.30;;;19.60;1.00;;;;;;5068504;28;20392;-67
2023/07/13 01:19:01;;;;;;;5.88;1.45;;;19.70;1.00;;;;;;5068169;28;20467;-67
2023/07/13 01:21:28;;;;;;;5.32;1.40;;;19.60;1.00;;;;;;5068767;28;20384;-67
2023/07/13 01:23:54;;;;;;;5.57;1.08;;;19.70;1.00;;;;;;5068418;28;20395;-67
2023/07/13 01:26:19;;;;;;;5.50;1.30;;;19.70;1.00;;;;;;5068878;28;20470;-67
2023/07/13 01:28:45;;;;;;;6.80;1.60;;;19.60;1.00;;;;;;5069234;28;20399;-67
2023/07/13 01:31:11;;;;;;;7.57;1.40;;;19.50;1.00;;;;;;5068820;28;20383;-67
2023/07/13 01:33:40;;;;;;;9.50;1.60;;;19.60;1.00;;;;;;5068381;28;20411;-67
2023/07/13 01:36:06;;;;;;;6.10;1.50;;;19.50;1.00;;;;;;5068648;28;20396;-67
2023/07/13 01:38:33;;;;;;;5.28;1.33;;;19.50;1.00;;;;;;5068332;28;20417;-67
2023/07/13 01:40:59;;;;;;;5.18;1.20;;;19.40;1.00;;;;;;5068616;28;20413;-67
2023/07/13 01:43:24;;;;;;;6.20;1.30;;;19.50;1.00;;;;;;5068472;28;20388;-67
2023/07/13 01:45:50;;;;;;;5.17;1.13;;;19.40;1.00;;;;;;5068766;28;20892;-67
2023/07/13 01:48:16;;;;;;;5.40;1.40;;;19.20;99.90;;;;;;5067968;28;20479;-67
2023/07/13 01:50:41;;;;;;;6.10;1.40;;;19.00;99.90;;;;;;5068764;28;20399;-67
2023/07/13 01:53:07;;;;;;;7.43;1.60;;;18.90;99.90;;;;;;5068276;28;20423;-67
2023/07/13 01:55:35;;;;;;;5.83;1.80;;;18.80;1.00;;;;;;5068609;28;20388;-66
2023/07/13 01:58:01;;;;;;;4.90;1.20;;;18.70;1.00;;;;;;5068090;28;20442;-66
2023/07/13 02:00:26;;;;;;;5.67;1.33;;;18.60;1.00;;;;;;5068215;28;20801;-67
2023/07/13 02:02:52;;;;;;;6.27;1.40;;;18.60;1.00;;;;;;5067475;28;20475;-67
2023/07/13 02:05:18;;;;;;;6.60;1.60;;;18.50;1.00;;;;;;5068071;28;20414;-67
2023/07/13 02:07:43;;;;;;;6.80;1.30;;;18.40;1.00;;;;;;5068340;28;20419;-67
2023/07/13 02:10:10;;;;;;;6.07;1.20;;;18.40;1.00;;;;;;5065429;28;20407;-67
2023/07/13 02:12:37;;;;;;;7.15;1.42;;;18.30;31.10;;;;;;5067571;28;20418;-67
2023/07/13 02:15:04;;;;;;;7.13;1.80;;;18.20;99.90;;;;;;5067663;28;20449;-67
2023/07/13 02:17:29;;;;;;;6.07;1.35;;;18.20;99.90;;;;;;5064365;28;20474;-67
2023/07/13 02:19:55;;;;;;;5.47;1.60;;;18.30;99.90;;;;;;5067626;28;20392;-67
2023/07/13 02:22:21;;;;;;;6.13;1.40;;;18.20;99.90;;;;;;5067673;28;20388;-67
2023/07/13 02:24:47;;;;;;;5.75;1.67;;;18.10;1.00;;;;;;5067419;28;20380;-67
2023/07/13 02:27:13;;;;;;;6.63;1.38;;;18.00;1.00;;;;;;5067978;28;20388;-67
2023/07/13 02:29:38;;;;;;;6.37;1.60;;;17.90;99.90;;;;;;5067485;28;20406;-67
2023/07/13 02:32:05;;;;;;;5.80;1.60;;;17.90;99.90;;;;;;5067043;28;20613;-67
2023/07/13 02:34:31;;;;;;;5.43;1.25;;;18.00;99.90;;;;;;5065041;28;20537;-67
2023/07/13 02:36:56;;;;;;;5.83;1.50;;;18.00;99.90;;;;;;5068342;28;20494;-67
2023/07/13 02:39:22;;;;;;;5.50;1.30;;;18.00;99.90;;;;;;5067574;28;20884;-67
2023/07/13 02:41:47;;;;;;;5.80;1.40;;;18.00;1.00;;;;;;5067487;28;20376;-67
2023/07/13 02:44:14;;;;;;;6.85;1.80;;;17.90;99.90;;;;;;5068036;28;20470;-67
2023/07/13 02:46:39;;;;;;;6.28;1.55;;;17.90;99.90;;;;;;5067357;28;20407;-67
2023/07/13 02:49:05;;;;;;;5.73;1.57;;;17.80;1.00;;;;;;5067561;28;20851;-67
2023/07/13 02:51:33;;;;;;;5.63;1.55;;;17.70;78.00;;;;;;5067775;28;20434;-67
2023/07/13 02:54:03;;;;;;;6.30;1.58;;;17.70;99.90;;;;;;5067530;28;20896;-67
2023/07/13 02:56:30;;;;;;;6.85;1.42;;;17.60;1.00;;;;;;5066582;28;20423;-67
2023/07/13 02:58:56;;;;;;;5.80;1.47;;;17.50;1.00;;;;;;5074045;28;20395;-67
2023/07/13 03:01:22;;;;;;;5.60;1.58;;;17.60;99.90;;;;;;5069778;28;20883;-67
2023/07/13 03:03:49;;;;;;;7.35;2.08;;;17.50;99.90;;;;;;5068218;28;20392;-67
2023/07/13 03:06:16;;;;;;;5.80;1.45;;;17.50;1.00;;;;;;5072388;28;20878;-67
2023/07/13 03:08:42;;;;;;;6.40;1.58;;;17.60;1.00;;;;;;5072783;28;20845;-67
2023/07/13 03:11:15;;;;;;;6.50;1.63;;;17.70;1.00;;;;;;5073067;28;20449;-67
2023/07/13 03:13:41;;;;;;;6.20;1.50;;;17.60;1.00;;;;;;5073035;28;20455;-66
2023/07/13 03:16:08;;;;;;;8.30;1.92;;;17.70;1.00;;;;;;5073571;28;20390;-67
2023/07/13 03:18:34;;;;;;;6.17;1.60;;;17.70;22.60;;;;;;5073459;28;20465;-66
2023/07/13 03:20:59;;;;;;;6.80;1.40;;;17.70;1.00;;;;;;5073116;28;20863;-67
2023/07/13 03:23:25;;;;;;;6.28;1.60;;;17.60;1.00;;;;;;5072921;28;20486;-67
2023/07/13 03:26:05;;;;;;;5.70;1.70;;;17.60;99.90;;;;;;5072554;28;20391;-67
2023/07/13 03:28:31;;;;;;;5.60;1.60;;;17.50;99.90;;;;;;5068999;28;20872;-67
2023/07/13 03:31:06;;;;;;;7.60;1.80;;;17.40;77.70;;;;;;5072131;28;20395;-67
2023/07/13 03:33:32;;;;;;;6.63;1.80;;;17.40;99.90;;;;;;5071686;28;20415;-67
2023/07/13 03:35:58;;;;;;;5.55;1.73;;;17.30;1.00;;;;;;5071474;28;20748;-67
2023/07/13 03:38:24;;;;;;;6.40;2.00;;;17.30;1.00;;;;;;5071344;28;20480;-67
2023/07/13 03:40:49;;;;;;;6.32;1.75;;;17.30;28.50;;;;;;5069862;28;20387;-67
2023/07/13 03:43:15;;;;;;;6.38;1.65;;;17.30;5.20;;;;;;5071162;28;20392;-68
2023/07/13 03:45:40;;;;;;;6.60;1.90;;;17.40;1.00;;;;;;5071231;28;20384;-68
2023/07/13 03:48:12;;;;;;;7.53;1.50;;;17.40;1.00;;;;;;5071310;28;20776;-68
2023/07/13 03:50:38;;;;;;;5.80;1.70;;;17.50;1.00;;;;;;5069081;28;20469;-67
2023/07/13 03:53:04;;;;;;;5.60;1.60;;;17.60;99.90;;;;;;5070864;28;20466;-67
2023/07/13 03:55:29;;;;;;;4.90;1.30;;;17.60;1.00;;;;;;5068863;28;20506;-67
2023/07/13 03:58:00;;;;;;;6.10;1.75;;;17.70;1.00;;;;;;5070511;28;20411;-68
2023/07/13 04:00:26;;;;;;;6.80;1.37;;;17.80;99.90;;;;;;5070483;28;20403;-67
2023/07/13 04:02:51;;;;;;;5.72;1.45;;;17.90;1.00;;;;;;5071488;28;20386;-67
2023/07/13 04:05:21;;;;;;;5.63;1.52;;;17.90;1.00;;;;;;5076031;28;20395;-78
2023/07/13 04:07:57;;;;;;;5.03;1.38;;;18.00;99.90;;;;;;5055957;28;20767;-77
2023/07/13 04:10:22;;;;;;;5.50;1.50;;;18.10;1.00;;;;;;5058460;28;20457;-78
2023/07/13 04:12:48;;;;;;;6.90;1.60;;;18.20;99.90;;;;;;5066023;28;20457;-77
2023/07/13 04:15:14;;;;;;;7.15;2.00;;;18.20;1.00;;;;;;5058018;28;20405;-77
2023/07/13 04:17:39;;;;;;;6.90;2.00;;;18.30;99.90;;;;;;5058313;28;20420;-77
2023/07/13 04:20:06;;;;;;;5.40;1.80;;;18.30;1.00;;;;;;5060917;28;20439;-77
2023/07/13 04:22:31;;;;;;;7.63;2.50;;;18.40;1.00;;;;;;5063529;28;20400;-76
2023/07/13 04:24:57;;;;;;;6.70;1.60;;;18.30;14.90;;;;;;5055346;28;20821;-77
2023/07/13 04:27:22;;;;;;;6.50;1.80;;;18.40;1.00;;;;;;5062941;28;20885;-76
2023/07/13 04:29:48;;;;;;;6.70;1.60;;;18.40;99.90;;;;;;5065207;28;20413;-76
2023/07/13 04:32:13;;;;;;;5.90;1.42;;;18.50;99.90;;;;;;5058072;28;20424;-77
2023/07/13 04:34:39;;;;;;;6.65;1.90;;;18.60;99.90;;;;;;5068532;28;20430;-78
2023/07/13 04:37:05;;;;;;;6.10;1.70;;;18.50;1.00;;;;;;5058203;28;20979;-79
2023/07/13 04:39:30;;;;;;;5.63;1.50;;;18.50;99.90;;;;;;5072276;28;20756;-79
2023/07/13 04:41:57;;;;;;;5.38;1.30;;;18.40;99.90;;;;;;5054482;28;20413;-79
2023/07/13 04:44:23;;;;;;;13.80;3.80;;;18.30;99.90;;;;;;5057222;28;20471;-78
2023/07/13 04:46:48;;;;;;;13.30;4.30;;;18.30;1.00;;;;;;5034923;28;20456;-79
2023/07/13 04:49:14;;;;;;;6.10;1.90;;;18.10;99.90;;;;;;5052080;28;20409;-79
2023/07/13 04:51:39;;;;;;;8.82;2.40;;;18.00;99.90;;;;;;5066900;28;20815;-79
2023/07/13 04:54:07;;;;;;;7.50;2.30;;;18.10;1.00;;;;;;5066585;28;20415;-79
2023/07/13 04:56:33;;;;;;;6.78;1.85;;;18.10;23.80;;;;;;5073922;28;20476;-79
2023/07/13 04:58:58;;;;;;;6.00;1.60;;;18.20;1.00;;;;;;5059738;28;20936;-79
2023/07/13 05:01:25;;;;;;;8.13;2.03;;;18.20;99.90;;;;;;5075345;28;20438;-79
2023/07/13 05:03:50;;;;;;;6.10;1.77;;;18.10;1.00;;;;;;5071316;28;20399;-79
2023/07/13 05:06:16;;;;;;;5.90;1.53;;;18.10;1.00;;;;;;5068332;28;20407;-78
2023/07/13 05:08:41;;;;;;;7.50;1.70;;;18.20;1.00;;;;;;5057996;28;20422;-77
2023/07/13 05:11:07;;;;;;;6.07;1.70;;;18.70;1.00;;;;;;5069819;28;20396;-69
2023/07/13 05:13:33;;;;;;;7.80;1.70;;;19.40;99.90;;;;;;5069586;28;20432;-69
2023/07/13 05:16:03;;;;;;;6.10;1.60;;;19.90;1.00;;;;;;5069937;28;20392;-69
2023/07/13 05:18:29;;;;;;;9.48;1.70;;;20.00;1.00;;;;;;5069621;28;20491;-69
2023/07/13 05:21:07;;;;;;;7.80;1.77;;;20.00;1.00;;;;;;5069509;28;20843;-68
2023/07/13 05:23:34;;;;;;;6.10;1.70;;;20.10;1.00;;;;;;5068357;28;20391;-68
2023/07/13 05:26:01;;;;;;;5.95;1.42;;;19.90;1.00;;;;;;5069289;28;20388;-68
2023/07/13 05:28:27;;;;;;;6.30;1.77;;;19.60;1.00;;;;;;5065173;28;20430;-68
2023/07/13 05:30:53;;;;;;;9.00;1.90;;;19.40;16.40;;;;;;5068849;28;20447;-68
2023/07/13 05:33:20;;;;;;;6.82;1.80;;;19.30;96.90;;;;;;5069045;28;20458;-68
2023/07/13 05:35:46;;;;;;;6.40;1.90;;;19.10;99.90;;;;;;5068934;28;20740;-68
2023/07/13 05:38:11;;;;;;;6.40;1.80;;;19.10;99.90;;;;;;5069325;28;20419;-68
2023/07/13 05:40:37;;;;;;;5.75;1.70;;;19.10;99.90;;;;;;5068662;28;20403;-68
2023/07/13 05:43:03;;;;;;;8.00;1.60;;;19.10;99.90;;;;;;5068583;28;20463;-67
2023/07/13 05:45:28;;;;;;;6.57;1.90;;;19.10;99.90;;;;;;5068607;28;20403;-67
2023/07/13 05:47:54;;;;;;;5.88;1.50;;;19.30;99.90;;;;;;5068393;28;20384;-68
2023/07/13 05:50:20;;;;;;;5.53;1.35;;;19.80;99.90;;;;;;5068142;28;20494;-67
2023/07/13 05:52:45;;;;;;;5.67;1.70;;;20.00;99.90;;;;;;5068938;28;20388;-67
2023/07/13 05:55:11;;;;;;;6.03;1.70;;;20.00;69.10;;;;;;5069179;28;20388;-68
2023/07/13 05:57:36;;;;;;;6.10;1.77;;;20.00;54.30;;;;;;5068826;28;20416;-68
2023/07/13 06:00:02;;;;;;;8.27;1.70;;;20.10;36.50;;;;;;5069173;28;20906;-68
2023/07/13 06:02:28;;;;;;;5.50;1.83;;;20.20;1.00;;;;;;5068956;28;20396;-68
2023/07/13 06:04:53;;;;;;;6.35;1.70;;;20.40;4.80;;;;;;5061528;28;20419;-68
2023/07/13 06:07:19;;;;;;;7.60;2.00;;;21.30;1.00;;;;;;5068519;28;20375;-70
2023/07/13 06:09:44;;;;;;;6.28;1.60;;;22.70;1.00;;;;;;5068848;28;20399;-68
2023/07/13 06:12:10;;;;;;;8.07;1.58;;;23.70;99.90;;;;;;5069051;28;20457;-68
2023/07/13 06:14:35;;;;;;;8.60;1.73;;;24.10;99.90;;;;;;5068875;28;20436;-68
2023/07/13 06:17:01;;;;;;;8.07;1.98;;;24.60;99.90;;;;;;5068860;28;20925;-68
2023/07/13 06:19:26;;;;;;;6.00;1.67;;;24.80;99.90;;;;;;5068750;28;20486;-68
2023/07/13 06:21:52;;;;;;;7.00;1.60;;;24.50;99.90;;;;;;5068644;28;20391;-68
2023/07/13 06:24:17;;;;;;;7.10;1.50;;;24.10;99.90;;;;;;5068343;28;20407;-68
2023/07/13 06:26:43;;;;;;;6.30;1.63;;;23.90;99.90;;;;;;5069276;28;20963;-68
2023/07/13 06:29:08;;;;;;;6.80;1.63;;;24.10;99.90;;;;;;5068821;28;20387;-68
2023/07/13 06:31:34;;;;;;;5.67;1.60;;;24.10;99.90;;;;;;5068827;28;20944;-68
2023/07/13 06:34:00;;;;;;;6.40;1.57;;;24.60;99.90;;;;;;5068557;28;20458;-68
2023/07/13 06:36:25;;;;;;;9.23;2.37;;;24.60;99.90;;;;;;5068681;28;20391;-68
2023/07/13 06:38:51;;;;;;;7.50;1.70;;;24.80;99.90;;;;;;5068162;28;20399;-69
2023/07/13 06:41:17;;;;;;;8.23;2.00;;;;;;;;;;5068269;28;20390;-69
2023/07/13 06:43:43;;;;;;;7.20;1.70;;;27.60;99.90;;;;;;5068927;28;20482;-69
2023/07/13 06:46:09;;;;;;;6.20;1.50;;;27.50;99.90;;;;;;5068931;28;20471;-69
2023/07/13 06:48:35;;;;;;;6.17;1.80;;;26.80;99.90;;;;;;5068731;28;20870;-69
2023/07/13 06:51:02;;;;;;;6.15;1.80;;;26.80;99.90;;;;;;5068643;28;20376;-69
2023/07/13 06:53:28;;;;;;;5.60;1.60;;;27.40;99.90;;;;;;5068357;28;20387;-69
2023/07/13 06:55:53;;;;;;;6.30;1.70;;;27.90;99.90;;;;;;5068538;28;21064;-69
2023/07/13 06:58:20;;;;;;;6.00;1.50;;;27.90;99.90;;;;;;5069780;28;20416;-68
2023/07/13 07:00:46;;;;;;;6.05;1.27;;;27.70;99.90;;;;;;5068589;28;20391;-69
2023/07/13 07:03:11;;;;;;;5.68;1.60;;;27.60;99.90;;;;;;5069238;28;20438;-69
2023/07/13 07:05:37;;;;;;;8.52;2.00;;;27.10;99.90;;;;;;5068712;28;20741;-69
2023/07/13 07:08:03;;;;;;;6.30;1.55;;;26.60;99.90;;;;;;5067809;28;20396;-69
2023/07/13 07:10:29;;;;;;;6.90;1.60;;;26.10;99.90;;;;;;5068429;28;20376;-68
2023/07/13 07:12:55;;;;;;;8.10;1.65;;;25.70;99.90;;;;;;5068533;28;20401;-68
2023/07/13 07:15:20;;;;;;;6.60;1.45;;;26.60;99.90;;;;;;5068287;28;20396;-68
2023/07/13 07:17:46;;;;;;;5.87;1.30;;;27.70;99.90;;;;;;5068122;28;20780;-69
2023/07/13 07:20:12;;;;;;;5.73;1.23;;;28.80;99.90;;;;;;5068941;28;20417;-69
2023/07/13 07:22:37;;;;;;;6.67;1.60;;;29.50;99.90;;;;;;5067951;28;20395;-69
2023/07/13 07:25:04;;;;;;;8.50;1.20;;;30.10;99.90;;;;;;5068231;28;20399;-69
2023/07/13 07:27:29;;;;;;;5.97;1.10;;;30.80;99.90;;;;;;5068365;28;20398;-69
2023/07/13 07:29:55;;;;;;;5.50;1.20;;;30.60;99.90;;;;;;5068839;28;20467;-69
2023/07/13 07:32:20;;;;;;;6.70;1.25;;;30.90;99.90;;;;;;5070082;28;20403;-69
2023/07/13 07:34:46;;;;;;;5.73;1.30;;;31.00;99.90;;;;;;5067662;28;20427;-69
2023/07/13 07:37:13;;;;;;;5.90;1.40;;;31.10;99.90;;;;;;5067974;28;20764;-69
2023/07/13 07:39:39;;;;;;;5.93;1.08;;;31.40;99.90;;;;;;5068092;28;20393;-69
2023/07/13 07:42:05;;;;;;;6.10;1.13;;;32.40;99.90;;;;;;5068007;28;20968;-68
2023/07/13 07:44:34;;;;;;;5.90;1.30;;;33.40;99.90;;;;;;5067899;28;20474;-68
2023/07/13 07:46:59;;;;;;;5.93;1.35;;;33.80;99.90;;;;;;5067922;28;20405;-69
2023/07/13 07:49:25;;;;;;;7.67;1.37;;;34.50;99.90;;;;;;5067469;28;20384;-68
2023/07/13 07:51:50;;;;;;;4.80;0.90;;;33.80;99.90;;;;;;5069860;28;20513;-68
2023/07/13 07:54:16;;;;;;;6.20;1.00;;;33.70;99.90;;;;;;5071664;28;20880;-68
2023/07/13 07:56:42;;;;;;;6.30;0.90;;;34.20;99.90;;;;;;5071987;28;20376;-68
2023/07/13 07:59:08;;;;;;;6.55;1.33;;;34.40;99.90;;;;;;5071663;28;20418;-69
2023/07/13 08:01:33;;;;;;;5.00;0.90;;;33.70;99.90;;;;;;5071135;28;20396;-68
2023/07/13 08:03:59;;;;;;;5.80;1.10;;;32.70;99.90;;;;;;5071182;28;20391;-68
2023/07/13 08:06:24;;;;;;;6.93;0.93;;;32.40;99.90;;;;;;5070839;28;20467;-69
2023/07/13 08:08:50;;;;;;;6.10;1.00;;;32.40;99.90;;;;;;5052997;28;20404;-69
2023/07/13 08:11:17;;;;;;;6.28;1.00;;;33.00;99.90;;;;;;5071179;28;20513;-69
2023/07/13 08:13:42;;;;;;;11.90;1.23;;;33.30;99.90;;;;;;5070976;28;20383;-68
2023/07/13 08:16:08;;;;;;;5.35;1.08;;;33.10;99.90;;;;;;5071329;28;20390;-68
2023/07/13 08:18:34;;;;;;;6.00;0.90;;;32.30;99.90;;;;;;5070962;28;20407;-68
2023/07/13 08:21:04;;;;;;;5.20;1.20;;;32.60;99.90;;;;;;5070460;28;20720;-68
2023/07/13 08:23:30;;;;;;;6.30;1.40;;;32.40;99.90;;;;;;5071107;28;20384;-68
2023/07/13 08:25:56;;;;;;;5.65;1.20;;;32.20;99.90;;;;;;5071051;28;20376;-68
2023/07/13 08:28:22;;;;;;;5.90;1.00;;;32.30;99.90;;;;;;5071082;28;20371;-68
2023/07/13 08:30:48;;;;;;;6.10;1.20;;;32.00;99.90;;;;;;5070805;28;20479;-68
2023/07/13 08:33:19;;;;;;;8.50;1.20;;;32.80;99.90;;;;;;5071217;28;20410;-68
2023/07/13 08:35:48;;;;;;;5.80;1.40;;;33.90;99.90;;;;;;5070917;28;20396;-69
2023/07/13 08:38:15;;;;;;;5.05;0.95;;;33.90;99.90;;;;;;5070858;28;20411;-69
2023/07/13 08:40:42;;;;;;;5.80;1.10;;;34.10;99.90;;;;;;5071113;28;20742;-69
2023/07/13 08:43:15;;;;;;;6.20;1.10;;;34.20;99.90;;;;;;5070989;28;20383;-69
2023/07/13 08:45:43;;;;;;;6.75;1.40;;;34.80;99.90;;;;;;5071232;28;20399;-69
2023/07/13 08:48:17;;;;;;;5.22;1.00;;;34.80;99.90;;;;;;5070734;28;20468;-68
2023/07/13 08:51:12;;;;;;;6.72;0.93;;;33.70;99.90;;;;;;5070999;28;20388;-69
2023/07/13 08:53:48;;;;;;;5.40;0.90;;;34.70;99.90;;;;;;5052450;28;20478;-69
2023/07/13 08:56:25;;;;;;;8.05;1.58;;;34.80;99.90;;;;;;5071081;28;20940;-69
2023/07/13 08:58:57;;;;;;;6.30;1.20;;;35.40;99.90;;;;;;5070691;28;20447;-69
2023/07/13 09:01:54;;;;;;;5.60;0.98;;;35.70;99.90;;;;;;5070410;28;20395;-69
2023/07/13 09:04:27;;;;;;;5.03;0.98;;;35.60;99.90;;;;;;5069233;28;20445;-69
2023/07/13 09:07:16;;;;;;;8.63;1.40;;;36.10;99.90;;;;;;5070027;28;20391;-69
2023/07/13 09:09:59;;;;;;;6.70;1.40;;;35.20;99.90;;;;;;5070568;28;20403;-69
2023/07/13 09:12:31;;;;;;;5.05;1.20;;;34.70;99.90;;;;;;5070244;28;20395;-68
2023/07/13 09:14:59;;;;;;;4.90;0.85;;;34.40;99.90;;;;;;5069856;28;20395;-69
2023/07/13 09:17:32;;;;;;;5.13;0.80;;;33.50;99.90;;;;;;5069645;28;20423;-69
2023/07/13 09:20:12;;;;;;;5.60;1.20;;;34.40;99.90;;;;;;5069614;28;20760;-68
2023/07/13 09:22:38;;;;;;;7.10;1.20;;;34.30;99.90;;;;;;5069696;28;20396;-68
2023/07/13 09:25:21;;;;;;;5.50;1.00;;;34.10;99.90;;;;;;5069596;28;20480;-68
2023/07/13 09:27:47;;;;;;;6.00;1.20;;;34.90;99.90;;;;;;5070125;28;20398;-69
2023/07/13 09:30:13;;;;;;;5.78;1.25;;;35.20;99.90;;;;;;5070827;28;20391;-69
2023/07/13 09:32:44;;;;;;;6.20;1.15;;;34.40;99.90;;;;;;5069860;28;20441;-69
2023/07/13 09:35:16;;;;;;;5.05;1.15;;;35.20;99.90;;;;;;5070407;28;20876;-69
2023/07/13 09:37:46;;;;;;;6.20;1.30;;;36.10;99.90;;;;;;5070331;28;20419;-68
2023/07/13 09:40:29;;;;;;;6.00;1.00;;;36.50;99.90;;;;;;5070806;28;20378;-68
2023/07/13 09:42:57;;;;;;;6.28;1.08;;;36.10;99.90;;;;;;5069678;28;20396;-69
2023/07/13 09:45:29;;;;;;;5.70;1.40;;;34.00;99.90;;;;;;5069614;28;20433;-68
2023/07/13 09:48:13;;;;;;;6.30;1.15;;;33.50;99.90;;;;;;5069308;28;20439;-68
2023/07/13 09:50:39;;;;;;;5.32;1.17;;;34.70;99.90;;;;;;5051731;28;20386;-68
2023/07/13 09:53:12;;;;;;;6.13;1.10;;;34.80;99.90;;;;;;5069820;28;20525;-68
2023/07/13 09:55:39;;;;;;;5.85;1.00;;;34.10;99.90;;;;;;5069866;28;20421;-69
2023/07/13 09:58:10;;;;;;;6.50;1.10;;;34.80;99.90;;;;;;5069568;28;20439;-68
2023/07/13 10:00:36;;;;;;;5.95;1.00;;;34.90;99.90;;;;;;5069064;28;20666;-68
2023/07/13 10:03:17;;;;;;;5.72;1.20;;;34.90;99.90;;;;;;5069386;28;20740;-69
2023/07/13 10:05:45;;;;;;;5.87;1.30;;;35.20;99.90;;;;;;5069471;28;20402;-69
2023/07/13 10:08:27;;;;;;;7.30;1.00;;;36.10;99.90;;;;;;5070138;28;20391;-69
2023/07/13 10:10:58;;;;;;;5.10;1.15;;;36.30;99.90;;;;;;5069629;28;20502;-69
2023/07/13 10:13:25;;;;;;;5.80;1.30;;;35.20;99.90;;;;;;5073255;28;20401;-69
2023/07/13 10:15:51;;;;;;;5.68;1.10;;;33.90;99.90;;;;;;5088751;28;20773;-69
2023/07/13 10:18:18;;;;;;;6.00;1.10;;;33.40;99.90;;;;;;5089508;28;20426;-68
2023/07/13 10:20:43;;;;;;;5.47;1.00;;;32.40;99.90;;;;;;5089670;28;20401;-68
2023/07/13 10:23:20;;;;;;;5.00;1.10;;;31.20;99.90;;;;;;5089182;28;20394;-68
2023/07/13 10:25:47;;;;;;;6.10;1.40;;;31.10;99.90;;;;;;5089514;28;20971;-68
2023/07/13 10:28:28;;;;;;;7.28;1.20;;;32.20;99.90;;;;;;5089550;28;20382;-68
2023/07/13 10:30:58;;;;;;;7.40;1.42;;;32.70;99.90;;;;;;5089258;28;20448;-68
2023/07/13 10:33:24;;;;;;;5.78;1.58;;;31.50;99.90;;;;;;5089199;28;20413;-69
2023/07/13 10:35:53;;;;;;;6.22;1.30;;;30.20;99.90;;;;;;5089165;28;20487;-68
2023/07/13 10:38:23;;;;;;;7.20;1.00;;;29.50;99.90;;;;;;5088814;28;20424;-68
2023/07/13 10:41:03;;;;;;;5.90;1.17;;;30.00;99.90;;;;;;5088404;28;20708;-68
2023/07/13 10:43:36;;;;;;;5.30;0.90;;;30.40;99.90;;;;;;5088536;28;20389;-68
2023/07/13 10:46:03;;;;;;;6.00;1.55;;;29.50;99.90;;;;;;5088689;28;20394;-68
2023/07/13 10:48:32;;;;;;;6.50;1.10;;;29.60;99.90;;;;;;5088275;28;20412;-67
2023/07/13 10:51:01;;;;;;;8.07;1.52;;;29.30;99.90;;;;;;5088401;28;20390;-68
2023/07/13 10:53:36;;;;;;;5.90;1.70;;;29.30;99.90;;;;;;5088979;28;20803;-68
2023/07/13 10:56:19;;;;;;;6.63;1.50;;;29.10;99.90;;;;;;5088924;28;20488;-68
2023/07/13 10:58:46;;;;;;;5.70;1.40;;;29.00;99.90;;;;;;5089843;28;20445;-68
2023/07/13 11:01:17;;;;;;;7.32;1.10;;;29.40;99.90;;;;;;5090066;28;20378;-68
2023/07/13 11:03:53;;;;;;;5.93;1.30;;;29.30;99.90;;;;;;5090603;28;20378;-67
2023/07/13 11:06:29;;;;;;;6.60;1.70;;;28.60;99.90;;;;;;5089038;28;20893;-67
2023/07/13 11:08:57;;;;;;;7.05;1.10;;;28.90;99.90;;;;;;5089094;28;21196;-68
2023/07/13 11:11:26;;;;;;;7.28;1.25;;;29.40;99.90;;;;;;5087936;28;20384;-68
2023/07/13 11:13:51;;;;;;;5.40;1.48;;;29.60;99.90;;;;;;5079021;28;20391;-68
2023/07/13 11:16:24;;;;;;;7.00;1.60;;;29.00;99.90;;;;;;5070325;28;20428;-68
2023/07/13 11:19:07;;;;;;;5.80;1.52;;;28.60;99.90;;;;;;5072054;28;20431;-68
2023/07/13 11:21:33;;;;;;;6.40;1.20;;;28.10;99.90;;;;;;5054222;28;20440;-67
2023/07/13 11:24:12;;;;;;;6.07;1.40;;;28.40;99.90;;;;;;5063292;28;20442;-67
2023/07/13 11:26:45;;;;;;;7.60;1.40;;;29.10;99.90;;;;;;5057061;28;20806;-68
2023/07/13 11:29:31;;;;;;;6.07;1.30;;;29.70;99.90;;;;;;5069560;28;20494;-68
2023/07/13 11:32:00;;;;;;;5.80;1.20;;;29.80;99.90;;;;;;5072112;28;20509;-68
2023/07/13 11:34:34;;;;;;;5.90;1.70;;;29.60;99.90;;;;;;5071221;28;20885;-68
2023/07/13 11:37:00;;;;;;;6.25;1.50;;;29.40;99.90;;;;;;5069073;28;20723;-68
2023/07/13 11:39:38;;;;;;;5.60;1.70;;;29.20;99.90;;;;;;5063848;28;20462;-68
2023/07/13 11:42:08;;;;;;;5.30;1.40;;;29.50;99.90;;;;;;5058074;28;20407;-67
2023/07/13 11:44:34;;;;;;;5.40;1.40;;;29.30;99.90;;;;;;5072743;28;20434;-68
2023/07/13 11:47:14;;;;;;;8.25;1.17;;;29.40;99.90;;;;;;5071906;28;20425;-69
2023/07/13 11:49:52;;;;;;;5.47;0.93;;;29.80;99.90;;;;;;5072035;28;20376;-68
2023/07/13 11:52:22;;;;;;;6.28;1.60;;;29.40;99.90;;;;;;5071456;28;20388;-68
2023/07/13 11:54:55;;;;;;;5.55;1.30;;;28.90;99.90;;;;;;5071156;28;20738;-69
2023/07/13 11:57:26;;;;;;;7.72;1.40;;;28.60;99.90;;;;;;5071153;28;20957;-68
2023/07/13 11:59:53;;;;;;;5.20;1.20;;;28.70;99.90;;;;;;5070960;28;20486;-68
2023/07/13 12:02:30;;;;;;;5.40;1.30;;;28.40;99.90;;;;;;5070434;28;20439;-68
2023/07/13 12:04:57;;;;;;;5.67;1.30;;;28.60;99.90;;;;;;5071282;28;20525;-69
2023/07/13 12:07:22;;;;;;;6.70;1.48;;;28.80;99.90;;;;;;5071475;28;20419;-68
2023/07/13 12:09:50;;;;;;;8.00;1.50;;;29.00;99.90;;;;;;5070063;28;20501;-68
2023/07/13 12:12:22;;;;;;;5.25;1.10;;;29.50;99.90;;;;;;5071121;28;20498;-68
2023/07/13 12:14:51;;;;;;;6.10;1.30;;;29.30;99.90;;;;;;5087351;28;20417;-68
2023/07/13 12:17:23;;;;;;;6.78;1.25;;;29.50;99.90;;;;;;5076449;28;20447;-69
2023/07/13 12:19:50;;;;;;;7.30;1.80;;;29.70;99.90;;;;;;5071111;28;20479;-68
2023/07/13 12:22:18;;;;;;;7.22;1.30;;;29.10;99.90;;;;;;5071080;28;20403;-68
2023/07/13 12:24:44;;;;;;;6.22;1.23;;;28.90;99.90;;;;;;5070789;28;20898;-68
2023/07/13 12:27:39;;;;;;;7.18;1.30;;;28.90;99.90;;;;;;5070925;28;20392;-68
2023/07/13 12:30:26;;;;;;;5.70;1.47;;;29.30;99.90;;;;;;5047789;28;20403;-68
2023/07/13 12:33:00;;;;;;;5.32;1.00;;;29.20;99.90;;;;;;5060388;28;20561;-67
2023/07/13 12:35:30;;;;;;;5.50;1.20;;;28.70;99.90;;;;;;5069961;28;20415;-67
2023/07/13 12:38:00;;;;;;;5.20;1.20;;;28.80;99.90;;;;;;5069960;28;20424;-67
2023/07/13 12:40:33;;;;;;;5.90;1.20;;;29.00;99.90;;;;;;5066802;28;20399;-68
2023/07/13 12:42:59;;;;;;;5.40;1.10;;;28.60;99.90;;;;;;5070525;28;20380;-68
2023/07/13 12:45:27;;;;;;;6.00;1.30;;;28.30;99.90;;;;;;5069389;28;20846;-67
2023/07/13 12:48:09;;;;;;;6.10;1.52;;;28.40;99.90;;;;;;5070613;28;20392;-67
2023/07/13 12:50:41;;;;;;;5.37;1.00;;;28.20;99.90;;;;;;5070730;28;20452;-68
2023/07/13 12:53:14;;;;;;;6.18;1.40;;;28.40;99.90;;;;;;5055879;28;21007;-68
2023/07/13 12:55:49;;;;;;;6.47;1.40;;;28.80;99.90;;;;;;5047986;28;20404;-68